Time;durP1;ratioP1;P1;durP2;ratioP2;P2;SDS_P1;SDS_P2;PMS_P1;PMS_P2;Temp;Humidity;BMP_temperature;BMP_pressure;BME280_temperature;BME280_humidity;BME280_pressure;Samples;Min_cycle;Max_cycle;Signal;HPM_P1;HPM_P2
2023/02/05 03:20:01;;;;;;;1999.90;999.90;;;;;;;;;;5939109;23;21339;-72
2023/02/05 03:22:46;;;;;;;1999.90;999.90;;;;;;;;;;4917606;29;20228;-71
2023/02/05 03:25:31;;;;;;;1999.90;999.90;;;;;;;;;;4907228;29;20241;-71
2023/02/05 03:28:16;;;;;;;1999.90;999.90;;;;;;;;;;4916924;29;20219;-72
2023/02/05 03:31:04;;;;;;;1999.90;999.90;;;;;;;;;;4907403;29;20229;-71
2023/02/05 03:33:53;;;;;;;1999.90;999.90;;;;;;;;;;4917100;29;20301;-71
2023/02/05 03:36:44;;;;;;;1999.90;999.90;;;;;;;;;;4908915;29;20531;-72
2023/02/05 03:39:32;;;;;;;1999.90;999.90;;;;;;;;;;4917968;29;20214;-71
2023/02/05 03:42:25;;;;;;;1999.90;999.90;;;;;;;;;;4916651;29;20709;-72
2023/02/05 03:45:19;;;;;;;1999.90;999.90;;;;;;;;;;4914139;29;20209;-72
2023/02/05 03:48:14;;;;;;;1999.90;999.90;;;;;;;;;;4917079;29;20202;-71
2023/02/05 03:51:03;;;;;;;1999.90;999.90;;;;;;;;;;4913395;29;20233;-69
2023/02/05 03:53:52;;;;;;;1999.90;999.90;;;;;;;;;;4916913;29;20233;-69
2023/02/05 03:56:42;;;;;;;1999.90;999.90;;;;;;;;;;4918163;29;20213;-70
2023/02/05 03:59:28;;;;;;;1999.90;999.90;;;;;;;;;;4912359;29;20622;-70
2023/02/05 04:02:14;;;;;;;1999.90;999.90;;;;;;;;;;4898416;29;20215;-71
2023/02/05 04:04:59;;;;;;;1999.90;999.90;;;;;;;;;;4900127;29;20213;-69
2023/02/05 04:07:44;;;;;;;1999.90;999.90;;;;;;;;;;4916703;29;20597;-71
2023/02/05 04:10:30;;;;;;;1999.90;999.90;;;;;;;;;;4916546;29;20226;-70
2023/02/05 04:13:15;;;;;;;1999.90;999.90;;;;;;;;;;4914625;29;20210;-71
2023/02/05 04:15:59;;;;;;;1999.90;999.90;;;;;;;;;;4915312;29;20892;-72
2023/02/05 04:18:44;;;;;;;1999.90;999.90;;;;;;;;;;4916666;29;20205;-71
2023/02/05 04:21:29;;;;;;;1999.90;999.90;;;;;;;;;;4914599;29;20317;-68
2023/02/05 04:24:14;;;;;;;1999.90;999.90;;;;;;;;;;4913698;29;20811;-69
2023/02/05 04:27:00;;;;;;;1999.90;999.90;;;;;;;;;;4914756;29;20213;-71
2023/02/05 04:29:45;;;;;;;1999.90;999.90;;;;;;;;;;4916225;29;20229;-68
2023/02/05 04:32:30;;;;;;;1999.90;999.90;;;;;;;;;;4916175;29;20734;-71
2023/02/05 04:35:15;;;;;;;1999.90;999.90;;;;;;;;;;4914009;29;20221;-72
2023/02/05 04:38:00;;;;;;;1999.90;999.90;;;;;;;;;;4914515;29;20607;-71
2023/02/05 04:40:45;;;;;;;1999.90;999.90;;;;;;;;;;4914671;29;21039;-71
2023/02/05 04:43:32;;;;;;;1999.90;999.90;;;;;;;;;;4915151;29;20198;-71
2023/02/05 04:46:17;;;;;;;1999.90;999.90;;;;;;;;;;4912927;29;20237;-72
2023/02/05 04:49:02;;;;;;;1999.90;999.90;;;;;;;;;;4915857;29;20209;-71
2023/02/05 04:51:47;;;;;;;1999.90;999.90;;;;;;;;;;4915686;29;20301;-72
2023/02/05 04:54:32;;;;;;;1999.90;999.90;;;;;;;;;;4915197;29;20337;-71
2023/02/05 04:57:17;;;;;;;1999.90;999.90;;;;;;;;;;4915661;29;20331;-72
2023/02/05 05:00:03;;;;;;;1999.90;999.90;;;;;;;;;;4909430;29;20222;-72
2023/02/05 05:02:48;;;;;;;1999.90;999.90;;;;;;;;;;4915155;29;20206;-72
2023/02/05 05:05:34;;;;;;;1999.90;999.90;;;;;;;;;;4915606;29;20202;-72
2023/02/05 05:08:19;;;;;;;1999.90;999.90;;;;;;;;;;4915534;29;20354;-71
2023/02/05 05:11:07;;;;;;;1999.90;999.90;;;;;;;;;;4914983;29;20229;-72
2023/02/05 05:13:53;;;;;;;1999.90;999.90;;;;;;;;;;4914346;29;20211;-72
2023/02/05 05:16:39;;;;;;;1999.90;999.90;;;;;;;;;;4913160;29;20213;-72
2023/02/05 05:19:24;;;;;;;1999.90;999.90;;;;;;;;;;4915480;29;20217;-72
2023/02/05 05:22:09;;;;;;;1999.90;999.90;;;;;;;;;;4915092;29;20221;-71
2023/02/05 05:24:54;;;;;;;1999.90;999.90;;;;;;;;;;4914605;29;20297;-72
2023/02/05 05:27:39;;;;;;;1999.90;999.90;;;;;;;;;;4915008;29;20719;-71
2023/02/05 05:30:24;;;;;;;1999.90;999.90;;;;;;;;;;4915045;29;20236;-71
2023/02/05 05:33:10;;;;;;;1999.90;999.90;;;;;;;;;;4914419;29;20221;-71
2023/02/05 05:35:55;;;;;;;1999.90;999.90;;;;;;;;;;4915463;29;20216;-72
2023/02/05 05:38:40;;;;;;;1999.90;999.90;;;;;;;;;;4915420;29;20322;-68
2023/02/05 05:44:28;;;;;;;1999.90;999.90;;;;;;;;;;4915088;29;20749;-70
2023/02/05 05:47:13;;;;;;;1999.90;999.90;;;;;;;;;;4911750;29;20277;-70
2023/02/05 05:49:59;;;;;;;1999.90;999.90;;;;;;;;;;4914444;29;20289;-70
2023/02/05 05:52:44;;;;;;;1999.90;999.90;;;;;;;;;;4915216;29;20277;-70
2023/02/05 05:55:29;;;;;;;1999.90;999.90;;;;;;;;;;4915270;29;20340;-69
2023/02/05 05:58:14;;;;;;;1999.90;999.90;;;;;;;;;;4895574;29;20934;-71
2023/02/05 06:00:59;;;;;;;1999.90;999.90;;;;;;;;;;4911224;29;20235;-70
2023/02/05 06:03:44;;;;;;;1999.90;999.90;;;;;;;;;;4915108;29;20293;-71
2023/02/05 06:06:31;;;;;;;1999.90;999.90;;;;;;;;;;4915037;29;20733;-71
2023/02/05 06:09:16;;;;;;;1999.90;999.90;;;;;;;;;;4914992;29;20261;-71
2023/02/05 06:12:01;;;;;;;1999.90;999.90;;;;;;;;;;4915041;29;20599;-71
2023/02/05 06:14:46;;;;;;;1999.90;999.90;;;;;;;;;;4914723;29;20222;-70
2023/02/05 06:17:30;;;;;;;1999.90;999.90;;;;;;;;;;4914998;29;20220;-70
2023/02/05 06:20:16;;;;;;;1999.90;999.90;;;;;;;;;;4914866;29;20241;-71
2023/02/05 06:23:02;;;;;;;1999.90;999.90;;;;;;;;;;4913798;29;20504;-70
2023/02/05 06:25:47;;;;;;;1999.90;999.90;;;;;;;;;;4914840;29;20262;-67
2023/02/05 06:28:32;;;;;;;1999.90;999.90;;;;;;;;;;4914625;29;20232;-70
2023/02/05 06:31:17;;;;;;;1999.90;999.90;;;;;;;;;;4914639;29;20279;-67
2023/02/05 06:34:02;;;;;;;1999.90;999.90;;;;;;;;;;4914614;29;20216;-68
2023/02/05 06:36:47;;;;;;;1999.90;999.90;;;;;;;;;;4915893;29;20212;-68
2023/02/05 06:39:33;;;;;;;1999.90;999.90;;;;;;;;;;4918184;29;20607;-69
2023/02/05 06:42:19;;;;;;;1999.90;999.90;;;;;;;;;;4918441;29;20212;-68
2023/02/05 06:45:04;;;;;;;1999.90;999.90;;;;;;;;;;4915527;29;20260;-69
2023/02/05 06:47:51;;;;;;;1999.90;999.90;;;;;;;;;;4918657;29;20274;-70
2023/02/05 06:50:36;;;;;;;1999.90;999.90;;;;;;;;;;4918172;29;20608;-68
2023/02/05 06:53:21;;;;;;;1999.90;999.90;;;;;;;;;;4917646;29;20238;-71
2023/02/05 06:56:08;;;;;;;1999.90;999.90;;;;;;;;;;4918181;29;20216;-71
2023/02/05 06:58:53;;;;;;;1999.90;999.90;;;;;;;;;;4917960;29;20298;-71
2023/02/05 07:01:38;;;;;;;1999.90;999.90;;;;;;;;;;4917735;29;20365;-70
2023/02/05 07:04:23;;;;;;;1999.90;999.90;;;;;;;;;;4917565;29;20230;-71
2023/02/05 07:07:08;;;;;;;1999.90;999.90;;;;;;;;;;4917851;29;20214;-71
2023/02/05 07:09:53;;;;;;;1999.90;999.90;;;;;;;;;;4917745;29;20232;-71
2023/02/05 07:12:39;;;;;;;1999.90;999.90;;;;;;;;;;4917656;29;20709;-71
2023/02/05 07:15:24;;;;;;;1999.90;999.90;;;;;;;;;;4916164;29;20220;-71
2023/02/05 07:18:09;;;;;;;1999.90;999.90;;;;;;;;;;4917723;29;20212;-70
2023/02/05 07:20:54;;;;;;;1999.90;999.90;;;;;;;;;;4917380;29;20295;-70
2023/02/05 07:23:39;;;;;;;1999.90;999.90;;;;;;;;;;4915319;29;20209;-70
2023/02/05 07:26:24;;;;;;;1999.90;999.90;;;;;;;;;;4917777;29;20695;-70
2023/02/05 07:29:10;;;;;;;1999.90;999.90;;;;;;;;;;4914728;29;20248;-70
2023/02/05 07:31:55;;;;;;;1999.90;999.90;;;;;;;;;;4917662;29;20615;-72
2023/02/05 07:34:40;;;;;;;1999.90;999.90;;;;;;;;;;4917039;29;20219;-71
2023/02/05 07:37:25;;;;;;;1999.90;999.90;;;;;;;;;;4917329;29;20217;-71
2023/02/05 07:40:10;;;;;;;1999.90;999.90;;;;;;;;;;4917149;29;20234;-71
2023/02/05 07:42:55;;;;;;;1999.90;999.90;;;;;;;;;;4917279;29;20587;-71
2023/02/05 07:45:42;;;;;;;1999.90;999.90;;;;;;;;;;4917226;29;20214;-70
2023/02/05 07:48:27;;;;;;;1999.90;999.90;;;;;;;;;;4916267;29;20211;-71
2023/02/05 07:51:15;;;;;;;1999.90;999.90;;;;;;;;;;4917057;29;20231;-74
2023/02/05 07:54:00;;;;;;;1999.90;999.90;;;;;;;;;;4914784;29;20726;-72
2023/02/05 07:56:45;;;;;;;1999.90;999.90;;;;;;;;;;4917028;29;20219;-69
2023/02/05 07:59:30;;;;;;;1999.90;999.90;;;;;;;;;;4917021;29;20320;-70
2023/02/05 08:02:16;;;;;;;1999.90;999.90;;;;;;;;;;4914324;29;20204;-72
2023/02/05 08:05:01;;;;;;;1999.90;999.90;;;;;;;;;;4914582;29;20801;-73
2023/02/05 08:07:46;;;;;;;1999.90;999.90;;;;;;;;;;4916782;29;20223;-72
2023/02/05 08:10:30;;;;;;;1999.90;999.90;;;;;;;;;;4914066;29;20749;-71
2023/02/05 08:13:16;;;;;;;1999.90;999.90;;;;;;;;;;4916305;29;20634;-72
2023/02/05 08:16:04;;;;;;;1999.90;999.90;;;;;;;;;;4916679;29;20779;-73
2023/02/05 08:18:50;;;;;;;1999.90;999.90;;;;;;;;;;4916398;29;20215;-73
2023/02/05 08:21:36;;;;;;;1999.90;999.90;;;;;;;;;;4916261;29;20231;-73
2023/02/05 08:24:20;;;;;;;1999.90;999.90;;;;;;;;;;4916245;29;20263;-73
2023/02/05 08:27:05;;;;;;;1999.90;999.90;;;;;;;;;;4916556;29;20206;-72
2023/02/05 08:29:50;;;;;;;1999.90;999.90;;;;;;;;;;4916668;29;20264;-73
2023/02/05 08:32:35;;;;;;;1999.90;999.90;;;;;;;;;;4915819;29;20216;-71
2023/02/05 08:35:21;;;;;;;1999.90;999.90;;;;;;;;;;4916055;29;20291;-73
2023/02/05 08:38:07;;;;;;;1999.90;999.90;;;;;;;;;;4916328;29;20741;-73
2023/02/05 08:40:52;;;;;;;1999.90;999.90;;;;;;;;;;4915613;29;20250;-72
2023/02/05 08:43:37;;;;;;;1999.90;999.90;;;;;;;;;;4915746;29;20207;-74
2023/02/05 08:46:24;;;;;;;1999.90;999.90;;;;;;;;;;4897704;29;20221;-72
2023/02/05 08:49:08;;;;;;;1999.90;999.90;;;;;;;;;;4916425;29;20219;-71
2023/02/05 08:51:54;;;;;;;1999.90;999.90;;;;;;;;;;4914827;29;20240;-72
2023/02/05 08:54:40;;;;;;;1999.90;999.90;;;;;;;;;;4915310;29;20264;-72
2023/02/05 08:57:26;;;;;;;1999.90;999.90;;;;;;;;;;4915477;29;20220;-72
2023/02/05 09:00:13;;;;;;;1999.90;999.90;;;;;;;;;;4913720;29;20236;-73
2023/02/05 09:02:58;;;;;;;1999.90;999.90;;;;;;;;;;4897384;29;20207;-72
2023/02/05 09:05:43;;;;;;;1999.90;999.90;;;;;;;;;;4912949;29;20732;-73
2023/02/05 09:08:30;;;;;;;1999.90;999.90;;;;;;;;;;4916300;29;20210;-73
2023/02/05 09:11:19;;;;;;;1999.90;999.90;;;;;;;;;;4913766;29;20447;-73
2023/02/05 09:14:04;;;;;;;1999.90;999.90;;;;;;;;;;4915189;29;20208;-73
2023/02/05 09:16:50;;;;;;;1999.90;999.90;;;;;;;;;;4915059;29;20211;-73
2023/02/05 09:19:35;;;;;;;1999.90;999.90;;;;;;;;;;4915889;29;20701;-73
2023/02/05 09:22:20;;;;;;;1999.90;999.90;;;;;;;;;;4915818;29;20215;-73
2023/02/05 09:25:07;;;;;;;1999.90;999.90;;;;;;;;;;4915707;29;20584;-73
2023/02/05 09:27:51;;;;;;;1999.90;999.90;;;;;;;;;;4915999;29;20603;-73
2023/02/05 09:30:36;;;;;;;1999.90;999.90;;;;;;;;;;4915792;29;20231;-72
2023/02/05 09:33:21;;;;;;;1999.90;999.90;;;;;;;;;;4915636;29;20336;-73
2023/02/05 09:36:07;;;;;;;1999.90;999.90;;;;;;;;;;4915561;29;20208;-72
2023/02/05 09:38:55;;;;;;;1999.90;999.90;;;;;;;;;;4914505;29;20392;-72
2023/02/05 09:41:44;;;;;;;1999.90;999.90;;;;;;;;;;4915766;29;20229;-73
2023/02/05 09:44:40;;;;;;;1999.90;999.90;;;;;;;;;;4915531;29;20212;-72
2023/02/05 09:47:27;;;;;;;1999.90;999.90;;;;;;;;;;4915697;29;20260;-73
2023/02/05 09:50:15;;;;;;;1999.90;999.90;;;;;;;;;;4915376;29;20229;-73
2023/02/05 09:53:02;;;;;;;1999.90;999.90;;;;;;;;;;4915507;29;20303;-73
2023/02/05 09:55:47;;;;;;;1999.90;999.90;;;;;;;;;;4915607;29;20216;-73
2023/02/05 09:58:36;;;;;;;1999.90;999.90;;;;;;;;;;4915676;29;20690;-73
2023/02/05 10:01:23;;;;;;;1999.90;999.90;;;;;;;;;;4915560;29;20314;-73
2023/02/05 10:04:08;;;;;;;1999.90;999.90;;;;;;;;;;4915065;29;20260;-73
2023/02/05 10:07:03;;;;;;;1999.90;999.90;;;;;;;;;;4915671;29;20710;-72
2023/02/05 10:10:03;;;;;;;1999.90;999.90;;;;;;;;;;4915541;29;20208;-72
2023/02/05 10:13:00;;;;;;;1999.90;999.90;;;;;;;;;;4917772;29;20600;-72
2023/02/05 10:15:54;;;;;;;1999.90;999.90;;;;;;;;;;4919353;29;20277;-72
2023/02/05 10:18:47;;;;;;;1999.90;999.90;;;;;;;;;;4919116;29;20228;-73
2023/02/05 10:21:38;;;;;;;1999.90;999.90;;;;;;;;;;4919009;29;20353;-73
2023/02/05 10:24:33;;;;;;;1999.90;999.90;;;;;;;;;;4918889;29;20206;-73
2023/02/05 10:27:20;;;;;;;1999.90;999.90;;;;;;;;;;4919100;29;20225;-72
2023/02/05 10:30:06;;;;;;;1999.90;999.90;;;;;;;;;;4918991;29;20233;-73
2023/02/05 10:32:57;;;;;;;1999.90;999.90;;;;;;;;;;4918688;29;20323;-73
2023/02/05 10:35:45;;;;;;;1999.90;999.90;;;;;;;;;;4918990;29;20706;-73
2023/02/05 10:38:32;;;;;;;1999.90;999.90;;;;;;;;;;4918941;29;20258;-73
2023/02/05 10:41:21;;;;;;;1999.90;999.90;;;;;;;;;;4918797;29;20701;-72
2023/02/05 10:44:11;;;;;;;1999.90;999.90;;;;;;;;;;4918278;29;20212;-73
2023/02/05 10:47:00;;;;;;;1999.90;999.90;;;;;;;;;;4918736;29;20212;-73
2023/02/05 10:49:50;;;;;;;1999.90;999.90;;;;;;;;;;4918518;29;20511;-72
2023/02/05 10:52:35;;;;;;;1999.90;999.90;;;;;;;;;;4918503;29;20270;-73
2023/02/05 10:55:20;;;;;;;1999.90;999.90;;;;;;;;;;4918456;29;20213;-73
2023/02/05 10:58:21;;;;;;;1999.90;999.90;;;;;;;;;;4918604;29;20205;-73
2023/02/05 11:01:07;;;;;;;1999.90;999.90;;;;;;;;;;4918510;29;20233;-73
2023/02/05 11:03:55;;;;;;;1999.90;999.90;;;;;;;;;;4918164;29;20213;-73
2023/02/05 11:06:42;;;;;;;1999.90;999.90;;;;;;;;;;4918356;29;20297;-73
2023/02/05 11:09:29;;;;;;;1999.90;999.90;;;;;;;;;;4918533;29;20775;-73
2023/02/05 11:12:20;;;;;;;1999.90;999.90;;;;;;;;;;4918184;29;20228;-73
2023/02/05 11:15:14;;;;;;;1999.90;999.90;;;;;;;;;;4917943;29;20212;-73
2023/02/05 11:18:00;;;;;;;1999.90;999.90;;;;;;;;;;4918235;29;20205;-73
2023/02/05 11:20:54;;;;;;;1999.90;999.90;;;;;;;;;;4917779;29;20317;-73
2023/02/05 11:23:53;;;;;;;1999.90;999.90;;;;;;;;;;4916361;29;20214;-73
2023/02/05 11:26:38;;;;;;;1999.90;999.90;;;;;;;;;;4918064;29;20208;-73
2023/02/05 11:29:24;;;;;;;1999.90;999.90;;;;;;;;;;4917962;29;20214;-72
2023/02/05 11:32:17;;;;;;;1999.90;999.90;;;;;;;;;;4917585;29;20236;-73
2023/02/05 11:35:08;;;;;;;1999.90;999.90;;;;;;;;;;4917647;29;20250;-71
2023/02/05 11:37:58;;;;;;;1999.90;999.90;;;;;;;;;;4917556;29;20214;-73
2023/02/05 11:40:51;;;;;;;1999.90;999.90;;;;;;;;;;4917754;29;20248;-72
2023/02/05 11:43:37;;;;;;;1999.90;999.90;;;;;;;;;;4917635;29;20715;-73
2023/02/05 11:46:23;;;;;;;1999.90;999.90;;;;;;;;;;4917740;29;20202;-73
2023/02/05 11:49:18;;;;;;;1999.90;999.90;;;;;;;;;;4917484;29;20298;-73
2023/02/05 11:52:08;;;;;;;1999.90;999.90;;;;;;;;;;4917411;29;20224;-73
2023/02/05 11:54:53;;;;;;;1999.90;999.90;;;;;;;;;;4917383;29;20217;-73
2023/02/05 11:57:40;;;;;;;1999.90;999.90;;;;;;;;;;4917565;29;20217;-73
2023/02/05 12:00:25;;;;;;;1999.90;999.90;;;;;;;;;;4917186;29;20242;-73
2023/02/05 12:03:16;;;;;;;1999.90;999.90;;;;;;;;;;4917151;29;20722;-73
2023/02/05 12:06:11;;;;;;;1999.90;999.90;;;;;;;;;;4917392;29;20218;-73
2023/02/05 12:08:56;;;;;;;1999.90;999.90;;;;;;;;;;4917372;29;20578;-73
2023/02/05 12:12:10;;;;;;;1999.90;999.90;;;;;;;;;;4916910;29;20241;-73
2023/02/05 12:14:59;;;;;;;1999.90;999.90;;;;;;;;;;4916921;29;20347;-73
2023/02/05 12:17:49;;;;;;;1999.90;999.90;;;;;;;;;;4917126;29;20301;-72
2023/02/05 12:20:38;;;;;;;1999.90;999.90;;;;;;;;;;4916838;29;20382;-73
2023/02/05 12:23:26;;;;;;;1999.90;999.90;;;;;;;;;;4916714;29;20202;-73
2023/02/05 12:26:21;;;;;;;1999.90;999.90;;;;;;;;;;4917086;29;20714;-73
2023/02/05 12:29:12;;;;;;;1999.90;999.90;;;;;;;;;;4916999;29;20210;-73
2023/02/05 12:32:04;;;;;;;1999.90;999.90;;;;;;;;;;4915704;29;20436;-74
2023/02/05 12:34:58;;;;;;;1999.90;999.90;;;;;;;;;;4916176;29;20702;-73
2023/02/05 12:37:46;;;;;;;1999.90;999.90;;;;;;;;;;4916814;29;20583;-73
2023/02/05 12:40:38;;;;;;;1999.90;999.90;;;;;;;;;;4916693;29;20238;-73
2023/02/05 12:43:30;;;;;;;1999.90;999.90;;;;;;;;;;4916417;29;20202;-73
2023/02/05 12:46:27;;;;;;;1999.90;999.90;;;;;;;;;;4916624;29;20206;-73
2023/02/05 12:49:20;;;;;;;1999.90;999.90;;;;;;;;;;4916671;29;20359;-74
2023/02/05 12:52:12;;;;;;;1999.90;999.90;;;;;;;;;;4916503;29;20504;-73
2023/02/05 12:55:04;;;;;;;1999.90;999.90;;;;;;;;;;4915988;29;20213;-73
2023/02/05 12:57:51;;;;;;;1999.90;999.90;;;;;;;;;;4915037;29;20909;-73
2023/02/05 13:00:39;;;;;;;1999.90;999.90;;;;;;;;;;4916355;29;20237;-73
2023/02/05 13:03:27;;;;;;;1999.90;999.90;;;;;;;;;;4916488;29;20705;-73
2023/02/05 13:06:16;;;;;;;1999.90;999.90;;;;;;;;;;4916320;29;20598;-73
2023/02/05 13:09:05;;;;;;;1999.90;999.90;;;;;;;;;;4916028;29;20210;-74
2023/02/05 13:11:51;;;;;;;1999.90;999.90;;;;;;;;;;4915946;29;20622;-73
2023/02/05 13:14:39;;;;;;;1999.90;999.90;;;;;;;;;;4915867;29;20216;-73
2023/02/05 13:17:26;;;;;;;1999.90;999.90;;;;;;;;;;4916145;29;20206;-73
2023/02/05 13:20:17;;;;;;;1999.90;999.90;;;;;;;;;;4915632;29;20229;-73
2023/02/05 13:29:11;;;;;;;1999.90;999.90;;;;;;;;;;4915725;29;20249;-74
2023/02/05 13:32:00;;;;;;;1999.90;999.90;;;;;;;;;;4915800;29;20738;-74
2023/02/05 13:34:45;;;;;;;1999.90;999.90;;;;;;;;;;4915606;29;20202;-73
2023/02/05 13:37:40;;;;;;;1999.90;999.90;;;;;;;;;;4915676;29;20758;-73
2023/02/05 13:40:36;;;;;;;1999.90;999.90;;;;;;;;;;4915827;29;20599;-73
2023/02/05 13:43:33;;;;;;;1999.90;999.90;;;;;;;;;;4915515;29;20583;-73
2023/02/05 13:46:31;;;;;;;1999.90;999.90;;;;;;;;;;4915077;29;20212;-73
2023/02/05 13:49:35;;;;;;;1999.90;999.90;;;;;;;;;;4915770;29;20683;-73
2023/02/05 13:52:27;;;;;;;1999.90;999.90;;;;;;;;;;4915640;29;20228;-73
2023/02/05 13:55:31;;;;;;;1999.90;999.90;;;;;;;;;;4915069;29;20228;-73
2023/02/05 13:58:21;;;;;;;1999.90;999.90;;;;;;;;;;4915677;29;20217;-74
2023/02/05 14:01:13;;;;;;;1999.90;999.90;;;;;;;;;;4915600;29;20225;-73
2023/02/05 14:03:59;;;;;;;1999.90;999.90;;;;;;;;;;4915409;29;20740;-73
2023/02/05 14:06:47;;;;;;;1999.90;999.90;;;;;;;;;;4915391;29;20206;-73
2023/02/05 14:09:34;;;;;;;1999.90;999.90;;;;;;;;;;4915696;29;20213;-73
2023/02/05 14:12:22;;;;;;;1999.90;999.90;;;;;;;;;;4914487;29;20499;-73
2023/02/05 14:15:25;;;;;;;1999.90;999.90;;;;;;;;;;4915191;29;20591;-73
2023/02/05 14:18:11;;;;;;;1999.90;999.90;;;;;;;;;;4915541;29;20298;-73
2023/02/05 14:20:56;;;;;;;1999.90;999.90;;;;;;;;;;4915446;29;20285;-73
2023/02/05 14:23:54;;;;;;;1999.90;999.90;;;;;;;;;;4915333;29;20210;-74
2023/02/05 14:26:46;;;;;;;1999.90;999.90;;;;;;;;;;4915475;29;20257;-73
2023/02/05 14:29:39;;;;;;;1999.90;999.90;;;;;;;;;;4915252;29;20610;-73
2023/02/05 14:32:41;;;;;;;1999.90;999.90;;;;;;;;;;4915378;29;20234;-73
2023/02/05 14:35:30;;;;;;;1999.90;999.90;;;;;;;;;;4913664;29;20262;-73
2023/02/05 14:38:16;;;;;;;1999.90;999.90;;;;;;;;;;4914177;29;20422;-73
2023/02/05 14:41:02;;;;;;;1999.90;999.90;;;;;;;;;;4915074;29;20613;-73
2023/02/05 14:43:54;;;;;;;1999.90;999.90;;;;;;;;;;4915118;29;20228;-72
2023/02/05 14:46:41;;;;;;;1999.90;999.90;;;;;;;;;;4915365;29;20230;-72
2023/02/05 14:49:28;;;;;;;1999.90;999.90;;;;;;;;;;4915285;29;20257;-72
2023/02/05 14:52:22;;;;;;;1999.90;999.90;;;;;;;;;;4915334;29;20214;-73
2023/02/05 14:55:17;;;;;;;1999.90;999.90;;;;;;;;;;4915021;29;20205;-73
2023/02/05 14:58:03;;;;;;;1999.90;999.90;;;;;;;;;;4916360;29;20689;-72
2023/02/05 15:00:48;;;;;;;1999.90;999.90;;;;;;;;;;4918248;29;20226;-73
2023/02/05 15:03:37;;;;;;;1999.90;999.90;;;;;;;;;;4918316;29;20706;-73
2023/02/05 15:06:24;;;;;;;1999.90;999.90;;;;;;;;;;4918581;29;20245;-73
2023/02/05 15:09:15;;;;;;;1999.90;999.90;;;;;;;;;;4918441;29;20218;-73
2023/02/05 15:12:08;;;;;;;1999.90;999.90;;;;;;;;;;4918241;29;20233;-73
2023/02/05 15:14:54;;;;;;;1999.90;999.90;;;;;;;;;;4917840;29;20208;-73
2023/02/05 15:17:50;;;;;;;1999.90;999.90;;;;;;;;;;4918347;29;20229;-72
2023/02/05 15:20:38;;;;;;;1999.90;999.90;;;;;;;;;;4917942;29;20246;-72
2023/02/05 15:23:34;;;;;;;1999.90;999.90;;;;;;;;;;4917905;29;20208;-72
2023/02/05 15:26:22;;;;;;;1999.90;999.90;;;;;;;;;;4918167;29;20209;-73
2023/02/05 15:29:12;;;;;;;1999.90;999.90;;;;;;;;;;4918062;29;20720;-73
2023/02/05 15:31:58;;;;;;;1999.90;999.90;;;;;;;;;;4917898;29;20234;-73
2023/02/05 15:34:46;;;;;;;1999.90;999.90;;;;;;;;;;4917708;29;20213;-73
2023/02/05 15:37:32;;;;;;;1999.90;999.90;;;;;;;;;;4917859;29;20210;-73
2023/02/05 15:40:19;;;;;;;1999.90;999.90;;;;;;;;;;4917771;29;20316;-73
2023/02/05 15:43:10;;;;;;;1999.90;999.90;;;;;;;;;;4917667;29;20709;-73
2023/02/05 15:45:59;;;;;;;1999.90;999.90;;;;;;;;;;4917782;29;20345;-73
2023/02/05 15:48:44;;;;;;;1999.90;999.90;;;;;;;;;;4917751;29;20334;-73
2023/02/05 15:51:31;;;;;;;1999.90;999.90;;;;;;;;;;4917603;29;20726;-73
2023/02/05 15:54:18;;;;;;;1999.90;999.90;;;;;;;;;;4916340;29;20435;-73
2023/02/05 15:57:04;;;;;;;1999.90;999.90;;;;;;;;;;4917677;29;20213;-72
2023/02/05 15:59:51;;;;;;;1999.90;999.90;;;;;;;;;;4917539;29;20265;-73
2023/02/05 16:02:38;;;;;;;1999.90;999.90;;;;;;;;;;4917526;29;20580;-73
2023/02/05 16:05:25;;;;;;;1999.90;999.90;;;;;;;;;;4917033;29;20301;-73
2023/02/05 16:08:17;;;;;;;1999.90;999.90;;;;;;;;;;4917451;29;20714;-73
2023/02/05 16:11:04;;;;;;;1999.90;999.90;;;;;;;;;;4917052;29;20241;-72
2023/02/05 16:13:49;;;;;;;1999.90;999.90;;;;;;;;;;4918834;29;20615;-73
2023/02/05 16:16:39;;;;;;;1999.90;999.90;;;;;;;;;;4919169;29;20217;-73
2023/02/05 16:19:26;;;;;;;1999.90;999.90;;;;;;;;;;4917676;29;20500;-73
2023/02/05 16:22:17;;;;;;;1999.90;999.90;;;;;;;;;;4917525;29;20221;-72
2023/02/05 16:25:04;;;;;;;1999.90;999.90;;;;;;;;;;4917716;29;20202;-73
2023/02/05 16:27:51;;;;;;;1999.90;999.90;;;;;;;;;;4917488;29;20234;-73
2023/02/05 16:30:39;;;;;;;1999.90;999.90;;;;;;;;;;4917129;29;20366;-73
2023/02/05 16:33:29;;;;;;;1999.90;999.90;;;;;;;;;;4916745;29;20232;-73
2023/02/05 16:36:16;;;;;;;1999.90;999.90;;;;;;;;;;4916959;29;20210;-73
2023/02/05 16:39:02;;;;;;;1999.90;999.90;;;;;;;;;;4916893;29;20288;-73
2023/02/05 16:41:59;;;;;;;1999.90;999.90;;;;;;;;;;4916719;29;20232;-73
2023/02/05 16:44:47;;;;;;;1999.90;999.90;;;;;;;;;;4916420;29;20337;-73
2023/02/05 16:47:32;;;;;;;1999.90;999.90;;;;;;;;;;4916714;29;20216;-73
2023/02/05 16:50:35;;;;;;;1999.90;999.90;;;;;;;;;;4916512;29;20347;-72
2023/02/05 16:53:21;;;;;;;1999.90;999.90;;;;;;;;;;4919796;29;20772;-74
2023/02/05 16:56:11;;;;;;;1999.90;999.90;;;;;;;;;;4921027;29;20300;-74
2023/02/05 16:58:57;;;;;;;1999.90;999.90;;;;;;;;;;4922641;29;20563;-74
2023/02/05 17:01:43;;;;;;;1999.90;999.90;;;;;;;;;;4917866;29;20233;-74
2023/02/05 17:04:30;;;;;;;1999.90;999.90;;;;;;;;;;4916218;29;20269;-73
2023/02/05 17:07:17;;;;;;;1999.90;999.90;;;;;;;;;;4916468;29;20684;-74
2023/02/05 17:10:12;;;;;;;1999.90;999.90;;;;;;;;;;4916160;29;20606;-73
2023/02/05 17:12:59;;;;;;;1999.90;999.90;;;;;;;;;;4916085;29;20228;-73
2023/02/05 17:15:44;;;;;;;1999.90;999.90;;;;;;;;;;4916300;29;20604;-73
2023/02/05 17:18:32;;;;;;;1999.90;999.90;;;;;;;;;;4916097;29;20206;-73
2023/02/05 17:21:21;;;;;;;1999.90;999.90;;;;;;;;;;4915721;29;20374;-73
2023/02/05 17:24:08;;;;;;;1999.90;999.90;;;;;;;;;;4915800;29;20579;-73
2023/02/05 17:26:53;;;;;;;1999.90;999.90;;;;;;;;;;4916165;29;20271;-73
2023/02/05 17:29:38;;;;;;;1999.90;999.90;;;;;;;;;;4916079;29;20698;-72
2023/02/05 17:32:23;;;;;;;1999.90;999.90;;;;;;;;;;4916106;29;20213;-73
2023/02/05 17:35:12;;;;;;;1999.90;999.90;;;;;;;;;;4915335;29;20237;-73
2023/02/05 17:37:57;;;;;;;1999.90;999.90;;;;;;;;;;4915906;29;20210;-73
2023/02/05 17:40:44;;;;;;;1999.90;999.90;;;;;;;;;;4915916;29;20228;-73
2023/02/05 17:43:29;;;;;;;1999.90;999.90;;;;;;;;;;4915625;29;20208;-72
2023/02/05 17:46:14;;;;;;;1999.90;999.90;;;;;;;;;;4915919;29;20590;-73
2023/02/05 17:48:59;;;;;;;1999.90;999.90;;;;;;;;;;4915847;29;20209;-72
2023/02/05 17:51:44;;;;;;;1999.90;999.90;;;;;;;;;;4915777;29;20607;-73
2023/02/05 17:54:29;;;;;;;1999.90;999.90;;;;;;;;;;4915178;29;20737;-73
2023/02/05 17:57:16;;;;;;;1999.90;999.90;;;;;;;;;;4916063;29;20367;-73
2023/02/05 18:00:01;;;;;;;1999.90;999.90;;;;;;;;;;4915252;29;20401;-73
2023/02/05 18:02:47;;;;;;;1999.90;999.90;;;;;;;;;;4915748;29;20216;-73
2023/02/05 18:05:32;;;;;;;1999.90;999.90;;;;;;;;;;4915386;29;20238;-72
2023/02/05 18:08:18;;;;;;;1999.90;999.90;;;;;;;;;;4915638;29;20618;-73
2023/02/05 18:11:03;;;;;;;1999.90;999.90;;;;;;;;;;4915606;29;20246;-73
2023/02/05 18:13:49;;;;;;;1999.90;999.90;;;;;;;;;;4915255;29;20252;-73
2023/02/05 18:16:34;;;;;;;1999.90;999.90;;;;;;;;;;4915725;29;20701;-73
2023/02/05 18:19:19;;;;;;;1999.90;999.90;;;;;;;;;;4915543;29;20353;-73
2023/02/05 18:22:04;;;;;;;1999.90;999.90;;;;;;;;;;4915510;29;20594;-73
2023/02/05 18:24:49;;;;;;;1999.90;999.90;;;;;;;;;;4915067;29;20209;-73
2023/02/05 18:27:34;;;;;;;1999.90;999.90;;;;;;;;;;4915553;29;20341;-74
2023/02/05 18:30:20;;;;;;;1999.90;999.90;;;;;;;;;;4915434;29;20233;-73
2023/02/05 18:33:05;;;;;;;1999.90;999.90;;;;;;;;;;4916457;29;20328;-73
2023/02/05 18:35:50;;;;;;;1999.90;999.90;;;;;;;;;;4919083;29;20219;-74
2023/02/05 18:38:36;;;;;;;1999.90;999.90;;;;;;;;;;4918941;29;20337;-74
2023/02/05 18:41:21;;;;;;;1999.90;999.90;;;;;;;;;;4918914;29;20236;-73
2023/02/05 18:44:06;;;;;;;1999.90;999.90;;;;;;;;;;4918660;29;20211;-74
2023/02/05 18:46:52;;;;;;;1999.90;999.90;;;;;;;;;;4918920;29;20203;-73
2023/02/05 18:49:37;;;;;;;1999.90;999.90;;;;;;;;;;4918882;29;20215;-74
2023/02/05 18:52:25;;;;;;;1999.90;999.90;;;;;;;;;;4918781;29;20262;-73
2023/02/05 18:55:11;;;;;;;1999.90;999.90;;;;;;;;;;4918159;29;20241;-73
2023/02/05 18:57:56;;;;;;;1999.90;999.90;;;;;;;;;;4918665;29;20255;-73
2023/02/05 19:00:40;;;;;;;1999.90;999.90;;;;;;;;;;4918549;29;20227;-71
2023/02/05 19:03:27;;;;;;;1999.90;999.90;;;;;;;;;;4914595;29;20352;-74